Time;durP1;ratioP1;P1;durP2;ratioP2;P2;SDS_P1;SDS_P2;PMS_P1;PMS_P2;Temp;Humidity;BMP_temperature;BMP_pressure;BME280_temperature;BME280_humidity;BME280_pressure;Samples;Min_cycle;Max_cycle;Signal;HPM_P1;HPM_P2
2022/03/13 00:02:16;;;;;;;19.25;10.00;;;-0.60;29.90;;;;;;5085067;28;20049;-81
2022/03/13 00:05:14;;;;;;;19.55;9.25;;;-0.60;30.00;;;;;;5091699;28;20036;-73
2022/03/13 00:07:45;;;;;;;18.80;9.70;;;-0.70;30.40;;;;;;5084304;28;20127;-80
2022/03/13 00:10:25;;;;;;;21.63;9.85;;;-0.60;30.20;;;;;;5083952;28;20231;-74
2022/03/13 00:12:54;;;;;;;20.63;9.80;;;-0.70;30.60;;;;;;5070243;28;20405;-80
2022/03/13 00:15:40;;;;;;;19.23;9.23;;;-0.80;30.50;;;;;;5101646;28;20047;-77
2022/03/13 00:18:09;;;;;;;18.55;9.18;;;-0.70;30.90;;;;;;5072808;28;20393;-74
2022/03/13 00:20:36;;;;;;;20.10;10.20;;;-0.80;30.70;;;;;;5075514;28;20032;-81
2022/03/13 00:23:06;;;;;;;;;;;-0.90;30.30;;;;;;5075130;28;20523;-73
2022/03/13 00:25:34;;;;;;;21.15;9.75;;;-0.80;30.30;;;;;;5108685;28;19956;-73
2022/03/13 00:28:03;;;;;;;21.63;10.57;;;-0.90;30.40;;;;;;5074445;28;20047;-76
2022/03/13 00:30:29;;;;;;;20.90;10.13;;;-1.00;30.70;;;;;;5091025;28;20392;-74
2022/03/13 00:33:12;;;;;;;24.05;10.52;;;-1.00;31.10;;;;;;5091064;28;20085;-74
2022/03/13 00:35:39;;;;;;;25.83;12.43;;;-1.40;32.30;;;;;;5078162;28;20028;-74
2022/03/13 00:38:26;;;;;;;30.98;13.32;;;-1.40;32.20;;;;;;5091740;28;20040;-81
2022/03/13 00:41:15;;;;;;;40.40;16.75;;;-1.40;32.40;;;;;;5091364;28;20111;-74
2022/03/13 00:43:48;;;;;;;37.25;16.17;;;-1.40;32.20;;;;;;5075669;28;20036;-75
2022/03/13 00:46:17;;;;;;;35.58;15.95;;;-1.40;32.20;;;;;;5070439;28;20037;-81
2022/03/13 00:48:45;;;;;;;38.47;16.52;;;-1.50;32.10;;;;;;5087483;28;20051;-80
2022/03/13 00:51:11;;;;;;;37.83;17.70;;;-1.50;32.10;;;;;;5053661;28;20028;-80
2022/03/13 00:53:38;;;;;;;;;;;-1.40;32.20;;;;;;5075640;28;20040;-74
2022/03/13 00:56:07;;;;;;;30.20;14.67;;;-1.50;31.80;;;;;;5091147;28;19995;-81
2022/03/13 00:58:42;;;;;;;32.17;14.57;;;-1.50;31.90;;;;;;5091543;28;20039;-80
2022/03/13 01:01:28;;;;;;;40.85;18.58;;;-1.50;32.40;;;;;;5090940;28;20042;-80
2022/03/13 01:04:01;;;;;;;39.50;17.88;;;-1.50;32.60;;;;;;5073892;28;20063;-74
2022/03/13 01:06:30;;;;;;;38.45;16.15;;;-1.50;33.00;;;;;;5091490;28;20103;-73
2022/03/13 01:08:57;;;;;;;35.03;16.77;;;-1.60;33.10;;;;;;5074163;28;20078;-74
2022/03/13 01:11:23;;;;;;;32.45;14.18;;;-1.60;33.10;;;;;;5110610;28;20031;-74
2022/03/13 01:13:51;;;;;;;29.60;13.15;;;-1.70;32.80;;;;;;5089187;28;20060;-80
2022/03/13 01:16:22;;;;;;;26.00;12.63;;;-1.80;33.20;;;;;;5053363;28;20036;-81
2022/03/13 01:19:11;;;;;;;30.55;12.60;;;-1.80;33.50;;;;;;5054425;28;20046;-74
2022/03/13 01:21:40;;;;;;;25.75;11.77;;;-1.80;33.70;;;;;;5081948;28;20036;-73
2022/03/13 01:24:47;;;;;;;25.02;11.63;;;-1.80;33.60;;;;;;5073502;28;20032;-79
2022/03/13 01:27:20;;;;;;;25.38;11.68;;;-1.90;34.00;;;;;;5090743;28;20040;-81
2022/03/13 01:29:57;;;;;;;29.05;13.18;;;-1.90;33.80;;;;;;5091330;28;20047;-74
2022/03/13 01:32:27;;;;;;;27.40;11.98;;;-1.90;33.80;;;;;;5089905;28;20495;-74
2022/03/13 01:34:54;;;;;;;29.38;14.23;;;-1.90;33.90;;;;;;5090018;28;20041;-80
2022/03/13 01:37:41;;;;;;;24.75;12.77;;;-1.90;33.90;;;;;;5091489;28;20032;-81
2022/03/13 01:40:38;;;;;;;33.72;13.98;;;-1.80;34.20;;;;;;5065821;28;20123;-81
2022/03/13 01:43:06;;;;;;;33.67;14.65;;;-1.90;34.20;;;;;;5056757;28;20047;-81
2022/03/13 01:45:34;;;;;;;27.73;14.32;;;-1.90;34.00;;;;;;5070808;28;20036;-81
2022/03/13 01:48:02;;;;;;;31.20;14.15;;;-1.90;34.00;;;;;;5053288;28;20123;-80
2022/03/13 01:50:30;;;;;;;29.08;13.48;;;-1.90;34.20;;;;;;5070507;28;20385;-73
2022/03/13 01:53:03;;;;;;;27.80;13.07;;;-1.90;34.30;;;;;;5071417;28;20216;-80
2022/03/13 01:55:32;;;;;;;25.13;12.80;;;-1.90;34.60;;;;;;5070502;28;20051;-81
2022/03/13 01:57:59;;;;;;;23.00;11.38;;;-2.00;34.70;;;;;;5072994;28;20044;-81
2022/03/13 02:00:36;;;;;;;28.38;14.15;;;-2.00;34.40;;;;;;5072398;28;20148;-80
2022/03/13 02:03:02;;;;;;;31.35;12.13;;;-2.00;35.00;;;;;;5089430;28;20051;-74
2022/03/13 02:05:49;;;;;;;28.20;12.95;;;-2.10;34.90;;;;;;5092140;28;20589;-80
2022/03/13 02:08:30;;;;;;;31.02;13.15;;;-2.10;35.00;;;;;;5103713;28;20165;-74
2022/03/13 02:11:05;;;;;;;25.42;11.43;;;-2.10;35.00;;;;;;5069357;28;20095;-81
2022/03/13 02:13:36;;;;;;;23.13;11.30;;;-2.10;35.30;;;;;;5088747;28;20040;-81
2022/03/13 02:16:03;;;;;;;25.52;11.60;;;-2.20;35.50;;;;;;5089052;28;20032;-75
2022/03/13 02:18:29;;;;;;;21.33;10.13;;;-2.30;35.70;;;;;;5065294;28;20041;-74
2022/03/13 02:20:58;;;;;;;26.63;11.73;;;-2.30;35.90;;;;;;5075781;28;20099;-74
2022/03/13 02:23:33;;;;;;;20.42;9.60;;;-2.40;35.60;;;;;;5089775;28;20032;-81
2022/03/13 02:26:05;;;;;;;20.75;10.02;;;-2.50;36.30;;;;;;5088678;28;20040;-81
2022/03/13 02:28:35;;;;;;;26.75;11.98;;;-2.50;36.40;;;;;;5088008;28;20111;-81
2022/03/13 02:31:06;;;;;;;23.27;9.93;;;-2.70;36.50;;;;;;5089738;28;20039;-81
2022/03/13 02:33:32;;;;;;;19.05;9.93;;;-2.80;36.90;;;;;;5090752;28;20036;-74
2022/03/13 02:36:02;;;;;;;20.52;9.82;;;-2.90;37.20;;;;;;5089232;28;20027;-81
2022/03/13 02:38:37;;;;;;;23.63;10.73;;;-3.00;37.30;;;;;;5089367;28;20035;-81
2022/03/13 02:41:06;;;;;;;21.80;9.90;;;-3.00;37.10;;;;;;5088077;28;20461;-81
2022/03/13 02:43:32;;;;;;;18.65;9.05;;;-3.00;36.90;;;;;;5088942;28;20378;-81
2022/03/13 02:46:00;;;;;;;18.73;9.65;;;-3.00;36.90;;;;;;5088359;28;20043;-81
2022/03/13 02:48:26;;;;;;;21.17;10.05;;;-3.00;36.90;;;;;;5068755;28;20040;-81
2022/03/13 02:50:52;;;;;;;21.17;10.55;;;-3.10;36.80;;;;;;5068678;28;20029;-82
2022/03/13 02:53:19;;;;;;;30.08;11.73;;;-3.10;36.90;;;;;;5086713;28;20094;-74
2022/03/13 02:55:46;;;;;;;25.58;12.32;;;-3.10;36.90;;;;;;5079208;28;20094;-81
2022/03/13 02:58:12;;;;;;;26.88;12.25;;;-3.20;36.90;;;;;;5068697;28;20036;-73
2022/03/13 03:00:46;;;;;;;22.60;11.10;;;-3.10;36.70;;;;;;5068829;28;20037;-74
2022/03/13 03:03:15;;;;;;;19.58;9.45;;;-3.10;37.30;;;;;;5096858;28;20067;-74
2022/03/13 03:05:41;;;;;;;23.50;9.82;;;-3.10;37.10;;;;;;5083016;28;20033;-81
2022/03/13 03:08:09;;;;;;;24.42;11.27;;;-3.10;37.10;;;;;;5052159;28;20033;-81
2022/03/13 03:10:37;;;;;;;23.52;10.27;;;-3.10;36.70;;;;;;5085518;28;20043;-74
2022/03/13 03:15:53;;;;;;;22.23;10.23;;;-3.10;37.30;;;;;;5091755;28;20525;-81
2022/03/13 03:18:42;;;;;;;22.88;10.57;;;-3.10;37.40;;;;;;5091990;28;20077;-81
2022/03/13 03:21:08;;;;;;;22.92;11.48;;;-3.10;37.70;;;;;;5073693;28;20040;-74
2022/03/13 03:23:40;;;;;;;23.75;10.38;;;-3.10;37.50;;;;;;5074327;28;20052;-80
2022/03/13 03:26:07;;;;;;;21.33;11.00;;;-3.10;37.70;;;;;;5092707;28;20048;-82
2022/03/13 03:28:43;;;;;;;24.65;11.02;;;-3.20;37.20;;;;;;5071150;28;20472;-80
2022/03/13 03:31:17;;;;;;;23.52;9.77;;;-3.10;37.70;;;;;;5071284;28;20033;-74
2022/03/13 03:33:45;;;;;;;23.45;10.82;;;-3.10;37.80;;;;;;5088093;28;20040;-74
2022/03/13 03:36:31;;;;;;;24.25;10.57;;;-3.20;37.80;;;;;;5071123;28;20090;-81
2022/03/13 03:39:13;;;;;;;19.50;9.32;;;-3.10;38.30;;;;;;5078433;28;20116;-80
2022/03/13 03:41:49;;;;;;;20.83;11.38;;;-3.30;37.80;;;;;;5074927;28;20477;-74
2022/03/13 03:44:20;;;;;;;20.08;10.13;;;-3.30;38.00;;;;;;5091327;28;20073;-81
2022/03/13 03:46:50;;;;;;;23.08;11.50;;;-3.30;38.20;;;;;;5089764;28;20040;-81
2022/03/13 03:49:27;;;;;;;19.58;9.00;;;-3.30;38.20;;;;;;5093050;28;20428;-74
2022/03/13 03:51:58;;;;;;;22.30;10.05;;;-3.30;38.50;;;;;;5094712;28;20144;-80
2022/03/13 03:54:24;;;;;;;16.98;8.60;;;-3.30;38.40;;;;;;5094952;28;20054;-74
2022/03/13 03:56:52;;;;;;;20.08;9.68;;;-3.40;38.40;;;;;;5095341;28;20039;-74
2022/03/13 04:02:04;;;;;;;20.20;9.60;;;-3.40;38.80;;;;;;5097245;27;20500;-74
2022/03/13 04:04:30;;;;;;;29.98;10.05;;;-3.50;38.20;;;;;;5054709;28;20045;-81
2022/03/13 04:07:02;;;;;;;20.85;9.43;;;-3.40;38.80;;;;;;5073070;28;20044;-74
2022/03/13 04:09:38;;;;;;;19.98;9.25;;;-3.50;38.80;;;;;;5072111;28;20078;-74
2022/03/13 04:12:07;;;;;;;16.27;8.57;;;-3.50;39.00;;;;;;5057549;28;20102;-73
2022/03/13 04:14:35;;;;;;;16.58;8.05;;;-3.50;38.50;;;;;;5074238;28;20393;-74
2022/03/13 04:17:02;;;;;;;20.50;9.25;;;-3.60;38.90;;;;;;5076389;28;20032;-74
2022/03/13 04:19:37;;;;;;;17.58;8.30;;;-3.60;39.10;;;;;;5078270;28;20032;-74
2022/03/13 04:22:04;;;;;;;22.92;9.25;;;-3.50;39.30;;;;;;5093299;28;20044;-74
2022/03/13 04:24:30;;;;;;;;;;;-3.60;39.20;;;;;;5096393;28;20078;-81
2022/03/13 04:27:15;;;;;;;16.58;8.02;;;-3.60;39.00;;;;;;5094048;28;20356;-73
2022/03/13 04:29:42;;;;;;;21.88;8.63;;;-3.60;38.70;;;;;;5094491;28;20556;-76
2022/03/13 04:32:14;;;;;;;17.17;8.25;;;-3.70;38.90;;;;;;5077535;28;20036;-81
2022/03/13 04:34:46;;;;;;;17.13;8.43;;;-3.70;39.00;;;;;;5078378;28;20481;-73
2022/03/13 04:37:18;;;;;;;19.67;8.80;;;-3.70;39.00;;;;;;5093308;28;20081;-73
2022/03/13 04:39:51;;;;;;;18.58;7.63;;;-3.70;39.00;;;;;;5094446;28;20028;-74
2022/03/13 04:42:18;;;;;;;18.50;8.10;;;-3.70;39.20;;;;;;5075387;28;20051;-81
2022/03/13 04:45:02;;;;;;;22.98;7.72;;;-3.80;39.20;;;;;;5074322;28;20020;-74
2022/03/13 04:47:51;;;;;;;19.10;8.05;;;-3.90;39.00;;;;;;5058052;28;20177;-74
2022/03/13 04:50:34;;;;;;;17.85;7.95;;;-3.90;39.80;;;;;;5068709;28;20107;-81
2022/03/13 04:53:38;;;;;;;20.80;7.35;;;-3.90;39.80;;;;;;5073653;28;20059;-74
2022/03/13 04:56:07;;;;;;;19.75;8.77;;;-3.90;39.80;;;;;;5068303;28;20043;-81
2022/03/13 04:58:34;;;;;;;20.88;9.23;;;-4.00;39.60;;;;;;5077986;28;20082;-74
2022/03/13 05:01:00;;;;;;;18.73;8.73;;;-4.00;39.30;;;;;;5073476;28;20373;-81
2022/03/13 05:03:27;;;;;;;18.08;7.90;;;-4.00;39.80;;;;;;5075038;28;20421;-80
2022/03/13 05:05:57;;;;;;;17.65;7.38;;;-4.00;39.80;;;;;;5073165;28;20054;-73
2022/03/13 05:08:23;;;;;;;16.85;7.70;;;-4.00;39.90;;;;;;5074517;28;20060;-81
2022/03/13 05:10:51;;;;;;;18.85;7.90;;;-4.00;39.90;;;;;;5075950;28;20036;-81
2022/03/13 05:13:22;;;;;;;20.48;9.20;;;-4.10;40.00;;;;;;5095301;28;20044;-74
2022/03/13 05:15:55;;;;;;;17.73;8.48;;;-4.10;40.10;;;;;;5073780;28;20036;-81
2022/03/13 05:18:22;;;;;;;21.08;7.38;;;-4.10;40.20;;;;;;5074085;28;20032;-74
2022/03/13 05:20:53;;;;;;;16.80;8.68;;;-4.20;40.30;;;;;;5074298;28;20025;-74
2022/03/13 05:23:35;;;;;;;20.88;7.63;;;-4.20;40.50;;;;;;5081686;28;20150;-73
2022/03/13 05:26:03;;;;;;;17.73;8.15;;;-4.20;40.50;;;;;;5092097;28;20032;-74
2022/03/13 05:28:32;;;;;;;18.08;7.95;;;-4.20;40.00;;;;;;5093800;28;20032;-82
2022/03/13 05:30:58;;;;;;;15.30;8.30;;;-4.20;40.30;;;;;;5093110;28;20362;-81
2022/03/13 05:33:24;;;;;;;23.23;7.72;;;-4.20;40.70;;;;;;5088459;28;20048;-74
2022/03/13 05:35:51;;;;;;;20.65;8.10;;;-4.30;41.00;;;;;;5073710;28;20040;-74
2022/03/13 05:38:18;;;;;;;21.27;7.90;;;-4.40;41.10;;;;;;5056560;28;20040;-79
2022/03/13 05:40:49;;;;;;;19.27;8.93;;;-4.40;41.30;;;;;;5072690;28;20499;-81
2022/03/13 05:43:16;;;;;;;32.47;9.93;;;-4.40;41.20;;;;;;5075622;28;20044;-74
2022/03/13 05:45:49;;;;;;;20.70;10.00;;;-4.30;41.00;;;;;;5093889;28;20149;-73
2022/03/13 05:48:20;;;;;;;21.38;9.57;;;-4.30;40.90;;;;;;5093276;28;20036;-74
2022/03/13 05:50:59;;;;;;;26.23;11.73;;;-4.20;40.80;;;;;;5092275;28;20079;-81
2022/03/13 05:53:46;;;;;;;23.02;10.90;;;-4.20;40.90;;;;;;5091910;28;20077;-81
2022/03/13 05:56:12;;;;;;;29.03;11.63;;;-4.10;41.10;;;;;;5089885;28;20051;-81
2022/03/13 05:58:38;;;;;;;25.25;11.95;;;-4.10;40.70;;;;;;5076398;28;20028;-80
2022/03/13 06:01:05;;;;;;;27.73;13.65;;;-4.00;40.70;;;;;;5055852;28;20453;-82
2022/03/13 06:03:33;;;;;;;43.45;16.27;;;-3.90;40.80;;;;;;5073580;28;20056;-73
2022/03/13 06:06:02;;;;;;;41.08;18.48;;;-3.90;40.70;;;;;;5071858;28;20028;-82
2022/03/13 06:08:28;;;;;;;60.47;26.00;;;-3.90;40.70;;;;;;5072477;28;20033;-81
2022/03/13 06:10:57;;;;;;;61.63;26.98;;;-3.80;40.70;;;;;;5071617;28;20060;-82
2022/03/13 06:13:24;;;;;;;96.82;41.20;;;-3.70;40.60;;;;;;5088606;28;20037;-82
2022/03/13 06:15:53;;;;;;;90.47;37.33;;;-3.60;40.20;;;;;;5071586;28;20036;-82
2022/03/13 06:18:20;;;;;;;82.05;33.53;;;-3.60;40.20;;;;;;5072618;28;20032;-82
2022/03/13 06:20:53;;;;;;;51.33;25.30;;;-3.50;40.90;;;;;;5063732;28;20028;-77
2022/03/13 06:23:20;;;;;;;47.90;22.25;;;-3.40;41.10;;;;;;5075694;28;20036;-74
2022/03/13 06:25:55;;;;;;;45.83;18.75;;;-3.40;40.80;;;;;;5091868;28;20050;-74
2022/03/13 06:28:22;;;;;;;40.30;17.02;;;-3.30;41.00;;;;;;5092940;28;20044;-82
2022/03/13 06:30:57;;;;;;;32.78;15.55;;;-3.20;41.00;;;;;;5074670;28;20024;-82
2022/03/13 06:33:23;;;;;;;27.77;14.55;;;-3.10;41.30;;;;;;5075841;28;20040;-81
2022/03/13 06:35:50;;;;;;;34.42;15.88;;;-3.00;41.20;;;;;;5091991;28;20028;-74
2022/03/13 06:38:19;;;;;;;33.72;15.52;;;-3.00;41.20;;;;;;5091959;28;20048;-82
2022/03/13 06:40:45;;;;;;;36.00;18.15;;;-2.90;41.40;;;;;;5091764;28;20028;-74
2022/03/13 06:43:11;;;;;;;;;;;-2.80;41.30;;;;;;5075099;28;20032;-74
2022/03/13 06:45:40;;;;;;;35.53;15.20;;;-2.80;40.90;;;;;;5093052;28;19916;-74
2022/03/13 06:48:06;;;;;;;35.00;16.00;;;-2.80;40.00;;;;;;5092244;28;20089;-74
2022/03/13 06:50:35;;;;;;;47.92;22.70;;;-2.70;40.60;;;;;;5078225;28;20036;-74
2022/03/13 06:53:01;;;;;;;47.90;21.70;;;-2.50;40.60;;;;;;5073256;28;20091;-73
2022/03/13 06:55:32;;;;;;;;;;;-2.40;40.40;;;;;;5071845;28;20067;-74
2022/03/13 06:57:59;;;;;;;49.67;25.92;;;-2.40;40.00;;;;;;5077867;28;19920;-73
2022/03/13 07:00:28;;;;;;;66.55;31.92;;;-2.30;40.10;;;;;;5091839;28;20032;-74
2022/03/13 07:02:57;;;;;;;47.58;22.13;;;-2.30;40.00;;;;;;5091880;28;20147;-81
2022/03/13 07:05:31;;;;;;;41.80;22.15;;;-2.20;40.20;;;;;;5091616;28;20523;-74
2022/03/13 07:07:58;;;;;;;45.25;21.83;;;-2.10;40.30;;;;;;5092384;28;20040;-81
2022/03/13 07:10:24;;;;;;;50.25;24.75;;;-2.00;40.00;;;;;;5054767;28;20111;-74
2022/03/13 07:12:59;;;;;;;50.80;23.17;;;-1.90;40.10;;;;;;5082903;28;20054;-74
2022/03/13 07:15:37;;;;;;;41.95;20.40;;;-1.70;40.40;;;;;;5058312;28;20040;-82
2022/03/13 07:18:04;;;;;;;41.67;19.45;;;-1.60;40.70;;;;;;5091462;28;20048;-81
2022/03/13 07:20:32;;;;;;;36.80;19.13;;;-1.50;40.50;;;;;;5091505;28;20493;-81
2022/03/13 07:22:58;;;;;;;46.95;22.63;;;-1.50;40.60;;;;;;5093114;28;20036;-81
2022/03/13 07:25:27;;;;;;;40.88;20.83;;;-1.40;40.90;;;;;;5094968;28;20024;-82
2022/03/13 07:27:53;;;;;;;30.85;14.65;;;-1.30;40.30;;;;;;5095257;28;20116;-81
2022/03/13 07:30:27;;;;;;;32.60;18.20;;;-1.20;41.00;;;;;;5096644;28;20422;-81
2022/03/13 07:33:02;;;;;;;23.00;12.93;;;-1.00;41.10;;;;;;5095614;28;20055;-74
2022/03/13 07:35:30;;;;;;;26.67;14.18;;;-0.90;40.50;;;;;;5094979;28;20028;-77
2022/03/13 07:37:56;;;;;;;28.75;13.63;;;-0.80;40.40;;;;;;5075525;28;20083;-80
2022/03/13 07:40:23;;;;;;;29.25;14.98;;;-0.70;40.50;;;;;;5074834;28;20033;-73
2022/03/13 07:42:52;;;;;;;28.50;13.50;;;-0.50;40.40;;;;;;5084620;28;20040;-80
2022/03/13 07:45:39;;;;;;;28.75;13.93;;;-0.40;40.10;;;;;;5095070;28;20423;-73
2022/03/13 07:48:05;;;;;;;26.80;13.10;;;-0.30;40.30;;;;;;5077913;28;20555;-74
2022/03/13 07:50:31;;;;;;;;;;;-0.10;40.00;;;;;;5078280;28;20055;-80
2022/03/13 07:53:00;;;;;;;21.55;11.45;;;0.10;39.30;;;;;;5095367;28;19927;-73
2022/03/13 07:55:32;;;;;;;30.90;14.95;;;0.30;39.00;;;;;;5094171;28;20047;-80
2022/03/13 07:58:02;;;;;;;25.80;11.73;;;0.50;38.80;;;;;;5077086;28;20052;-73
2022/03/13 08:00:31;;;;;;;29.80;13.85;;;0.70;38.40;;;;;;5094475;28;20111;-80
2022/03/13 08:02:57;;;;;;;25.95;12.73;;;1.60;38.10;;;;;;5094472;28;20059;-73
2022/03/13 08:05:33;;;;;;;25.70;13.05;;;3.10;36.60;;;;;;5074206;28;20568;-79
2022/03/13 08:07:59;;;;;;;26.52;12.20;;;4.70;35.30;;;;;;5074721;28;20466;-74
2022/03/13 08:10:25;;;;;;;24.55;11.60;;;5.90;34.60;;;;;;5074094;28;20036;-73
2022/03/13 08:13:18;;;;;;;21.30;11.20;;;7.00;33.70;;;;;;5073610;28;20040;-77
2022/03/13 08:15:42;;;;;;;22.17;11.32;;;7.80;32.10;;;;;;5087878;28;20096;-79
2022/03/13 08:18:13;;;;;;;22.88;11.25;;;9.00;31.10;;;;;;5095004;28;20040;-79
2022/03/13 08:20:57;;;;;;;21.95;11.30;;;10.00;29.50;;;;;;5094209;28;20032;-74
2022/03/13 08:23:36;;;;;;;23.20;11.30;;;11.10;29.00;;;;;;5095518;28;20044;-78
2022/03/13 08:26:05;;;;;;;21.33;11.82;;;12.10;28.10;;;;;;5080318;28;20289;-79
2022/03/13 08:28:32;;;;;;;20.10;11.48;;;13.00;26.90;;;;;;5086337;28;20507;-79
2022/03/13 08:30:58;;;;;;;23.85;11.30;;;13.80;26.00;;;;;;5076789;28;20036;-75
2022/03/13 08:33:33;;;;;;;25.27;12.27;;;14.70;25.70;;;;;;5073394;28;20037;-75
2022/03/13 08:36:01;;;;;;;21.25;11.13;;;15.50;24.40;;;;;;5067335;28;20056;-80
2022/03/13 08:38:30;;;;;;;23.63;13.55;;;16.60;23.80;;;;;;5093719;28;20434;-75
2022/03/13 08:41:14;;;;;;;24.42;14.32;;;17.20;22.30;;;;;;5092441;28;20080;-75
2022/03/13 08:43:41;;;;;;;28.17;13.73;;;17.90;21.60;;;;;;5090980;28;20052;-75
2022/03/13 08:46:13;;;;;;;19.00;9.70;;;18.60;20.30;;;;;;5094769;28;20024;-81
2022/03/13 08:48:40;;;;;;;18.40;10.00;;;19.00;19.60;;;;;;5093751;28;20362;-75
2022/03/13 08:51:11;;;;;;;20.77;12.27;;;19.70;19.20;;;;;;5060193;28;20097;-81
2022/03/13 08:53:45;;;;;;;17.77;10.05;;;20.60;18.10;;;;;;5087412;28;20079;-76
2022/03/13 08:56:13;;;;;;;;;;;21.40;17.10;;;;;;5094339;28;20024;-82
2022/03/13 08:58:42;;;;;;;22.48;9.30;;;21.80;18.10;;;;;;5092952;28;19931;-81
2022/03/13 09:01:11;;;;;;;17.60;9.68;;;22.40;15.50;;;;;;5076721;28;20093;-74
2022/03/13 09:03:37;;;;;;;14.57;9.18;;;22.90;14.40;;;;;;5084283;28;20084;-75
2022/03/13 09:06:03;;;;;;;;;;;23.30;14.00;;;;;;5073411;28;20029;-76
2022/03/13 09:08:30;;;;;;;21.73;14.70;;;23.70;15.60;;;;;;5073586;28;19927;-82
2022/03/13 09:10:56;;;;;;;19.40;10.90;;;24.40;12.10;;;;;;5072988;28;20558;-75
2022/03/13 09:13:22;;;;;;;23.88;13.82;;;25.00;12.30;;;;;;5089508;28;20058;-75
2022/03/13 09:15:49;;;;;;;23.88;12.27;;;25.60;11.50;;;;;;5094452;28;20499;-82
2022/03/13 09:18:16;;;;;;;26.40;15.15;;;26.00;10.80;;;;;;5095274;28;20074;-82
2022/03/13 09:20:45;;;;;;;23.55;14.65;;;26.20;10.10;;;;;;5093263;28;20081;-76
2022/03/13 09:23:12;;;;;;;14.80;9.77;;;26.60;9.50;;;;;;5080847;28;20136;-75
2022/03/13 09:25:40;;;;;;;17.02;10.05;;;26.90;9.60;;;;;;5072547;28;20032;-75
2022/03/13 09:28:07;;;;;;;15.02;9.35;;;27.10;9.20;;;;;;5078209;28;20050;-82
2022/03/13 09:30:48;;;;;;;13.65;8.25;;;27.80;9.00;;;;;;5090187;28;20132;-75
2022/03/13 09:33:17;;;;;;;18.67;12.55;;;28.30;8.40;;;;;;5073322;28;20500;-81
2022/03/13 09:35:51;;;;;;;15.75;9.52;;;28.70;8.20;;;;;;5072383;28;20552;-81
2022/03/13 09:38:17;;;;;;;11.98;7.75;;;29.20;8.30;;;;;;5073241;28;20123;-82
2022/03/13 09:40:47;;;;;;;11.55;7.57;;;29.40;7.70;;;;;;5072262;28;20024;-75
2022/03/13 09:43:13;;;;;;;12.32;7.18;;;29.80;7.40;;;;;;5091864;28;20038;-82
2022/03/13 09:45:39;;;;;;;15.68;7.38;;;29.80;6.70;;;;;;5075614;28;20032;-75
2022/03/13 09:50:52;;;;;;;13.38;8.23;;;29.80;6.90;;;;;;5080251;28;20098;-79
2022/03/13 09:53:31;;;;;;;12.73;7.88;;;30.80;6.90;;;;;;5074906;28;20043;-75
2022/03/13 09:56:01;;;;;;;12.48;7.72;;;30.90;6.40;;;;;;5070913;28;20060;-81
2022/03/13 09:58:31;;;;;;;14.68;8.80;;;31.40;6.80;;;;;;5054169;28;20106;-81
2022/03/13 10:00:59;;;;;;;13.38;8.18;;;32.50;6.30;;;;;;5053826;28;20144;-75
2022/03/13 10:03:32;;;;;;;12.23;7.82;;;32.80;5.60;;;;;;5054420;28;20098;-82
2022/03/13 10:06:06;;;;;;;12.23;7.85;;;33.20;5.60;;;;;;5054058;28;20497;-81
2022/03/13 10:08:35;;;;;;;13.82;9.88;;;33.40;5.30;;;;;;5054593;28;20064;-81
2022/03/13 10:11:08;;;;;;;11.45;7.40;;;33.80;4.90;;;;;;5033933;28;20049;-75
2022/03/13 10:13:54;;;;;;;14.18;8.85;;;34.30;5.20;;;;;;5035075;28;20045;-81
2022/03/13 10:16:59;;;;;;;11.68;7.35;;;34.40;5.20;;;;;;5050496;28;20041;-76
2022/03/13 10:19:32;;;;;;;11.82;6.55;;;34.90;4.90;;;;;;5053883;28;20123;-81
2022/03/13 10:22:19;;;;;;;11.73;7.22;;;34.40;5.00;;;;;;5054105;28;20053;-81
2022/03/13 10:24:57;;;;;;;11.05;6.32;;;33.80;4.90;;;;;;5054502;28;20039;-75
2022/03/13 10:27:27;;;;;;;11.30;6.38;;;33.80;4.80;;;;;;5087425;28;20058;-75
2022/03/13 10:29:53;;;;;;;10.27;6.55;;;33.80;4.50;;;;;;5090204;28;20032;-76
2022/03/13 10:32:24;;;;;;;9.77;6.43;;;33.30;4.80;;;;;;5074924;28;20101;-75
2022/03/13 10:35:10;;;;;;;9.32;5.80;;;34.10;4.80;;;;;;5076264;28;20024;-75
2022/03/13 10:37:42;;;;;;;11.77;5.23;;;34.00;4.90;;;;;;5092057;28;20118;-75
2022/03/13 10:40:38;;;;;;;10.35;6.03;;;33.70;4.20;;;;;;5058231;28;20072;-75
2022/03/13 10:43:10;;;;;;;10.23;5.97;;;33.80;4.20;;;;;;5072929;28;20118;-74
2022/03/13 10:45:56;;;;;;;11.73;6.25;;;34.00;4.80;;;;;;5106716;28;20028;-81
2022/03/13 10:48:43;;;;;;;10.73;4.90;;;34.10;4.70;;;;;;5079892;28;20068;-81
2022/03/13 10:51:14;;;;;;;8.73;5.28;;;35.00;4.60;;;;;;5071498;28;20037;-81
2022/03/13 10:53:41;;;;;;;8.77;4.93;;;35.00;4.20;;;;;;5060545;28;20044;-75
2022/03/13 10:56:58;;;;;;;10.30;5.65;;;34.90;3.80;;;;;;5091622;28;20119;-75
2022/03/13 10:59:26;;;;;;;8.00;4.70;;;34.80;3.40;;;;;;5075486;28;20390;-81
2022/03/13 11:02:31;;;;;;;7.55;4.85;;;34.30;4.00;;;;;;5091666;28;20036;-75
2022/03/13 11:04:58;;;;;;;6.75;3.65;;;34.00;4.40;;;;;;5093532;28;20066;-81
2022/03/13 11:07:31;;;;;;;7.63;4.45;;;33.90;3.80;;;;;;5091372;28;20077;-82
2022/03/13 11:09:57;;;;;;;7.97;3.67;;;33.00;4.50;;;;;;5091995;28;20029;-81
2022/03/13 11:12:26;;;;;;;7.00;3.90;;;32.60;3.90;;;;;;5091673;28;20400;-82
2022/03/13 11:15:13;;;;;;;12.23;8.10;;;33.10;3.60;;;;;;5090517;28;20123;-82
2022/03/13 11:18:00;;;;;;;9.05;5.80;;;33.60;3.80;;;;;;5092482;28;20058;-75
2022/03/13 11:20:30;;;;;;;8.77;6.03;;;32.80;3.80;;;;;;5092373;28;20064;-78
2022/03/13 11:23:17;;;;;;;7.72;4.40;;;32.90;3.60;;;;;;5092190;28;20119;-75
2022/03/13 11:25:54;;;;;;;7.25;3.53;;;33.90;3.50;;;;;;5086577;28;20127;-75
2022/03/13 11:28:22;;;;;;;7.68;3.78;;;33.60;3.40;;;;;;5087817;28;20089;-82
2022/03/13 11:30:51;;;;;;;8.25;4.20;;;33.10;3.90;;;;;;5105606;28;20461;-82
2022/03/13 11:33:48;;;;;;;7.07;3.78;;;33.90;3.80;;;;;;5075444;28;20155;-82
2022/03/13 11:36:33;;;;;;;7.70;3.80;;;35.40;3.50;;;;;;5090517;28;20082;-82
2022/03/13 11:39:15;;;;;;;7.07;3.88;;;36.70;2.40;;;;;;5091705;28;20093;-74
2022/03/13 11:42:03;;;;;;;7.10;4.18;;;36.80;2.70;;;;;;5074196;28;20035;-82
2022/03/13 11:44:57;;;;;;;7.40;3.63;;;37.50;2.80;;;;;;5091343;28;20039;-76
2022/03/13 11:47:25;;;;;;;9.02;3.95;;;38.00;3.10;;;;;;5092468;28;20032;-83
2022/03/13 11:49:52;;;;;;;6.72;3.42;;;37.70;2.60;;;;;;5091458;28;20139;-75
2022/03/13 11:52:40;;;;;;;6.80;3.92;;;37.70;2.50;;;;;;5091998;28;20131;-75
2022/03/13 11:55:17;;;;;;;9.95;4.07;;;38.20;2.40;;;;;;5068587;28;20020;-75
2022/03/13 11:58:00;;;;;;;6.10;3.72;;;37.60;2.50;;;;;;5072764;28;20040;-83
2022/03/13 12:00:36;;;;;;;10.50;5.72;;;38.00;2.70;;;;;;5089684;28;20055;-75
2022/03/13 12:03:21;;;;;;;;;;;37.20;3.10;;;;;;5054713;28;20405;-83
2022/03/13 12:05:51;;;;;;;6.75;3.95;;;36.70;2.90;;;;;;5070959;28;20448;-81
2022/03/13 12:08:21;;;;;;;8.30;4.88;;;35.70;2.70;;;;;;5071578;28;20139;-80
2022/03/13 12:10:48;;;;;;;9.15;4.20;;;36.40;3.00;;;;;;5073348;28;20098;-75
2022/03/13 12:13:37;;;;;;;9.30;4.90;;;37.70;2.30;;;;;;5076890;28;20032;-75
2022/03/13 12:16:12;;;;;;;7.45;4.80;;;38.20;2.80;;;;;;5090293;28;20039;-82
2022/03/13 12:19:02;;;;;;;9.00;4.55;;;38.00;2.80;;;;;;5095080;28;20024;-76
2022/03/13 12:21:31;;;;;;;8.07;5.43;;;37.90;2.30;;;;;;5094621;28;20044;-75
2022/03/13 12:24:20;;;;;;;13.43;7.78;;;38.70;2.00;;;;;;5094193;28;20040;-83
2022/03/13 12:26:52;;;;;;;6.72;4.60;;;39.90;2.10;;;;;;5094706;28;20036;-84
2022/03/13 12:29:37;;;;;;;7.75;4.45;;;40.40;2.00;;;;;;5093783;28;20092;-75
2022/03/13 12:32:11;;;;;;;7.90;4.93;;;40.40;2.40;;;;;;5095407;28;20075;-75
2022/03/13 12:34:40;;;;;;;7.93;4.57;;;40.20;2.00;;;;;;5074342;28;20036;-76
2022/03/13 12:37:16;;;;;;;9.00;4.60;;;40.50;1.90;;;;;;5057975;28;20561;-83
2022/03/13 12:40:03;;;;;;;7.30;4.40;;;40.90;1.70;;;;;;5075329;28;20048;-77
2022/03/13 12:42:34;;;;;;;8.48;4.22;;;41.00;1.80;;;;;;5104286;28;20032;-84
2022/03/13 12:45:09;;;;;;;8.27;4.15;;;40.10;2.00;;;;;;5093648;28;20071;-83
2022/03/13 12:47:42;;;;;;;;;;;38.90;2.00;;;;;;5095273;28;20036;-75
2022/03/13 12:50:13;;;;;;;9.10;4.97;;;39.80;2.40;;;;;;5093890;28;20018;-82
2022/03/13 12:53:01;;;;;;;7.20;4.47;;;40.20;2.30;;;;;;5066229;28;20109;-75
2022/03/13 12:55:39;;;;;;;7.18;4.53;;;40.50;2.10;;;;;;5093298;28;20058;-75
2022/03/13 12:58:07;;;;;;;12.57;7.75;;;40.40;1.80;;;;;;5077454;28;20499;-83
2022/03/13 13:00:44;;;;;;;8.98;5.45;;;40.00;2.90;;;;;;5092938;28;20093;-75
2022/03/13 13:03:49;;;;;;;11.98;6.88;;;40.80;2.00;;;;;;5076789;28;20048;-76
2022/03/13 13:06:30;;;;;;;9.70;4.45;;;40.20;2.20;;;;;;5093140;28;20409;-76
2022/03/13 13:09:36;;;;;;;6.65;3.97;;;40.70;2.00;;;;;;5093803;28;20032;-76
2022/03/13 13:12:29;;;;;;;6.43;3.70;;;40.00;2.00;;;;;;5078521;28;20605;-83
2022/03/13 13:15:00;;;;;;;7.70;3.72;;;40.60;2.00;;;;;;5076441;28;20036;-75
2022/03/13 13:17:28;;;;;;;6.53;4.03;;;41.10;2.10;;;;;;5093379;28;20037;-75
2022/03/13 13:20:34;;;;;;;8.45;5.30;;;40.80;2.00;;;;;;5094201;28;20093;-83